createdAt,value
2022-08-29T00:01:41.490Z,65387.91
2022-08-29T00:04:26.633Z,101330.78
2022-08-29T00:06:55.054Z,100871.28
2022-08-29T00:09:24.037Z,100884.56
2022-08-29T00:12:03.310Z,100884.56
2022-08-29T00:14:31.180Z,100887.63
2022-08-29T00:16:58.733Z,100889.06
2022-08-29T00:19:26.167Z,100894.97
2022-08-29T00:21:53.774Z,100893.94
2022-08-29T00:24:21.219Z,100896.41
2022-08-29T00:26:49.949Z,100880.69
2022-08-29T00:29:17.339Z,100897.00
2022-08-29T00:31:45.124Z,100918.47
2022-08-29T00:34:12.627Z,100957.03
2022-08-29T00:36:41.452Z,100989.88
2022-08-29T00:39:16.388Z,100982.34
2022-08-29T00:41:45.170Z,100971.59
2022-08-29T00:44:14.053Z,100972.84
2022-08-29T00:46:52.035Z,100968.06
2022-08-29T00:49:31.308Z,100962.69
2022-08-29T00:52:01.243Z,100966.28
2022-08-29T00:54:28.940Z,100965.47
2022-08-29T00:56:57.023Z,100968.91
2022-08-29T00:59:31.241Z,100979.59
2022-08-29T01:01:58.925Z,100980.03
2022-08-29T01:04:26.544Z,100995.22
2022-08-29T01:06:55.695Z,101002.16
2022-08-29T01:09:23.969Z,101016.22
2022-08-29T01:12:09.988Z,101016.44
2022-08-29T01:14:41.601Z,101010.34
2022-08-29T01:17:12.832Z,101006.28
2022-08-29T01:19:46.307Z,101013.63
2022-08-29T01:22:34.813Z,101017.28
2022-08-29T01:25:07.416Z,101013.81
2022-08-29T01:27:39.698Z,101010.88
2022-08-29T01:30:09.450Z,101013.78
2022-08-29T01:32:36.876Z,101023.94
2022-08-29T01:35:05.809Z,101020.25
2022-08-29T01:37:36.607Z,101009.25
2022-08-29T01:40:06.954Z,101018.00
2022-08-29T01:43:23.359Z,78677.59
2022-08-29T01:45:51.247Z,101020.44
2022-08-29T01:48:19.236Z,101028.59
2022-08-29T01:50:47.885Z,65387.91
2022-08-29T01:53:16.463Z,65387.91
2022-08-29T01:55:45.419Z,65387.91
2022-08-29T01:58:13.094Z,101028.59
2022-08-29T02:00:41.235Z,65387.91
2022-08-29T02:03:08.747Z,101026.16
2022-08-29T02:05:36.595Z,101028.56
2022-08-29T02:08:04.551Z,101040.97
2022-08-29T02:10:32.234Z,101044.00
2022-08-29T02:13:00.952Z,101045.16
2022-08-29T02:15:28.344Z,101045.16
2022-08-29T02:17:56.288Z,101045.16
2022-08-29T02:20:23.805Z,101034.84
2022-08-29T02:22:51.213Z,101184.31
2022-08-29T02:25:36.308Z,93882.53
2022-08-29T02:28:05.191Z,65387.91
2022-08-29T02:30:32.647Z,65387.91
2022-08-29T02:33:00.039Z,65387.91
2022-08-29T02:35:34.443Z,65387.91
2022-08-29T02:38:02.572Z,65387.91
2022-08-29T02:40:31.655Z,65387.91
2022-08-29T02:43:00.008Z,65387.91
2022-08-29T02:45:29.660Z,65387.91
2022-08-29T02:47:58.439Z,65387.91
2022-08-29T02:50:26.367Z,65387.91
2022-08-29T02:52:54.127Z,65387.91
2022-08-29T02:55:23.455Z,65387.91
2022-08-29T02:57:52.331Z,65387.91
2022-08-29T03:00:23.070Z,65387.91
2022-08-29T03:02:52.676Z,65387.91
2022-08-29T03:05:23.922Z,65387.91
2022-08-29T03:07:52.401Z,65387.91
2022-08-29T03:10:20.075Z,65387.91
2022-08-29T03:12:48.562Z,65387.91
2022-08-29T03:15:16.950Z,65387.91
2022-08-29T03:17:44.719Z,65387.91
2022-08-29T03:20:18.056Z,65387.91
2022-08-29T03:22:46.416Z,65387.91
2022-08-29T03:25:14.591Z,65387.91
2022-08-29T03:27:42.299Z,65387.91
2022-08-29T03:30:12.631Z,65387.91
2022-08-29T03:32:40.976Z,65387.91
2022-08-29T03:35:10.934Z,65387.91
2022-08-29T03:37:40.380Z,65387.91
2022-08-29T03:40:10.241Z,65387.91
2022-08-29T03:42:37.756Z,65387.91
2022-08-29T03:45:06.272Z,65387.91
2022-08-29T03:47:33.689Z,65387.91
2022-08-29T03:50:01.142Z,65387.91
2022-08-29T03:52:29.771Z,65387.91
2022-08-29T03:54:58.703Z,65387.91
2022-08-29T03:57:27.305Z,65387.91
2022-08-29T03:59:58.167Z,65387.91
2022-08-29T04:02:25.745Z,65387.91
2022-08-29T04:05:08.688Z,65387.91
2022-08-29T04:07:46.076Z,65387.91
2022-08-29T04:10:19.253Z,65387.91
2022-08-29T04:12:49.137Z,65387.91
2022-08-29T04:15:43.549Z,101048.69
2022-08-29T04:18:59.862Z,65387.91
2022-08-29T04:22:23.229Z,65387.91
2022-08-29T04:25:37.644Z,65387.91
2022-08-29T04:29:04.980Z,65387.91
2022-08-29T04:32:31.048Z,65387.91
2022-08-29T04:35:57.099Z,65387.91
2022-08-29T04:39:22.989Z,65387.91
2022-08-29T04:42:50.587Z,65387.91
2022-08-29T04:46:23.986Z,65387.91
2022-08-29T04:49:54.825Z,65387.91
2022-08-29T04:53:21.998Z,65387.91
2022-08-29T04:56:57.327Z,65387.91
2022-08-29T05:00:25.822Z,65387.91
2022-08-29T05:03:52.386Z,65387.91
2022-08-29T05:07:20.965Z,65387.91
2022-08-29T05:10:47.985Z,65387.91
2022-08-29T05:14:15.367Z,65387.91
2022-08-29T05:17:41.661Z,65387.91
2022-08-29T05:21:08.032Z,65387.91
2022-08-29T05:24:37.185Z,65387.91
2022-08-29T05:28:07.715Z,65387.91
2022-08-29T05:31:37.393Z,65387.91
2022-08-29T05:35:04.017Z,65387.91
2022-08-29T05:38:29.910Z,65387.91
2022-08-29T05:41:56.214Z,65387.91
2022-08-29T05:45:22.203Z,65387.91
2022-08-29T05:48:49.435Z,65387.91
2022-08-29T05:52:18.000Z,65387.91
2022-08-29T05:55:45.453Z,65387.91
2022-08-29T05:59:13.769Z,65387.91
2022-08-29T06:02:39.925Z,65387.91
2022-08-29T06:06:08.109Z,65387.91
2022-08-29T06:09:34.122Z,65387.91
2022-08-29T06:13:00.455Z,65387.91
2022-08-29T06:16:28.096Z,65387.91
2022-08-29T06:19:54.285Z,65387.91
2022-08-29T06:23:21.499Z,65387.91
2022-08-29T06:26:54.900Z,65387.91
2022-08-29T06:30:20.919Z,65387.91
2022-08-29T06:33:47.336Z,65387.91
2022-08-29T06:37:14.281Z,65387.91
2022-08-29T06:40:41.627Z,65387.91
2022-08-29T06:44:08.258Z,65387.91
2022-08-29T06:47:35.483Z,65387.91
2022-08-29T06:51:03.426Z,65387.91
2022-08-29T06:54:30.200Z,65387.91
2022-08-29T06:57:58.052Z,65387.91
2022-08-29T07:01:24.542Z,65387.91
2022-08-29T07:04:52.744Z,65387.91
2022-08-29T07:08:18.664Z,65387.91
2022-08-29T07:11:45.283Z,65387.91
2022-08-29T07:15:12.572Z,65387.91
2022-08-29T07:18:38.733Z,65387.91
2022-08-29T07:21:37.390Z,101048.69
2022-08-29T07:25:03.457Z,65387.91
2022-08-29T07:28:30.802Z,65387.91
2022-08-29T07:32:02.076Z,65387.91
2022-08-29T07:35:30.742Z,65387.91
2022-08-29T07:38:57.059Z,65387.91
2022-08-29T07:42:24.687Z,65387.91
2022-08-29T07:45:52.448Z,65387.91
2022-08-29T07:49:19.861Z,65387.91
2022-08-29T07:52:47.644Z,65387.91
2022-08-29T07:56:10.052Z,65387.91
2022-08-29T07:59:36.325Z,65387.91
2022-08-29T08:03:02.602Z,65387.91
2022-08-29T08:06:32.198Z,65387.91
2022-08-29T08:10:00.536Z,65387.91
2022-08-29T08:13:27.959Z,65387.91
2022-08-29T08:16:54.229Z,65387.91
2022-08-29T08:20:20.608Z,65387.91
2022-08-29T08:23:48.197Z,65387.91
2022-08-29T08:27:14.268Z,65387.91
2022-08-29T08:30:41.118Z,65387.91
2022-08-29T08:34:07.308Z,65387.91
2022-08-29T08:37:33.243Z,65387.91
2022-08-29T08:41:02.723Z,65387.91
2022-08-29T08:44:49.471Z,65387.91
2022-08-29T08:48:19.449Z,65387.91
2022-08-29T08:51:50.984Z,65387.91
2022-08-29T08:55:25.402Z,65387.91
2022-08-29T08:58:56.432Z,65387.91
2022-08-29T09:02:35.191Z,65387.91
2022-08-29T09:06:10.341Z,65387.91
2022-08-29T09:09:48.310Z,65387.91
2022-08-29T09:13:27.160Z,65387.91
2022-08-29T09:16:56.509Z,65387.91
2022-08-29T09:20:26.002Z,65387.91
2022-08-29T09:24:07.336Z,65387.91
2022-08-29T09:27:36.441Z,65387.91
2022-08-29T09:31:23.874Z,65387.91
2022-08-29T09:35:08.084Z,65387.91
2022-08-29T09:38:35.318Z,65387.91
2022-08-29T09:42:19.230Z,65387.91
2022-08-29T09:45:26.614Z,101048.69
2022-08-29T09:49:14.938Z,65387.91
2022-08-29T09:52:51.899Z,65387.91
2022-08-29T09:56:22.782Z,65387.91
2022-08-29T10:00:10.377Z,65387.91
2022-08-29T10:03:45.356Z,65387.91
2022-08-29T10:07:15.871Z,65387.91
2022-08-29T10:10:53.423Z,65387.91
2022-08-29T10:14:25.805Z,65387.91
2022-08-29T10:18:17.416Z,65387.91
2022-08-29T10:21:56.124Z,65387.91
2022-08-29T10:25:43.839Z,65387.91
2022-08-29T10:29:19.847Z,65387.91
2022-08-29T10:32:57.118Z,65387.91
2022-08-29T10:36:31.054Z,65387.91
2022-08-29T10:40:04.228Z,65387.91
2022-08-29T10:43:37.927Z,65387.91
2022-08-29T10:47:16.980Z,65387.91
2022-08-29T10:50:43.999Z,101048.69
2022-08-29T10:54:27.338Z,65387.91
2022-08-29T10:58:00.060Z,65387.91
2022-08-29T11:01:31.731Z,65387.91
2022-08-29T11:05:10.431Z,65387.91
2022-08-29T11:08:42.925Z,65387.91
2022-08-29T11:12:17.289Z,65387.91
2022-08-29T11:15:50.813Z,65387.91
2022-08-29T11:19:23.686Z,65387.91
2022-08-29T11:22:01.189Z,101048.69
2022-08-29T11:25:31.502Z,65387.91
2022-08-29T11:29:00.614Z,65387.91
2022-08-29T11:31:44.209Z,100493.78
2022-08-29T11:34:29.066Z,100530.00
2022-08-29T11:38:31.003Z,65387.91
2022-08-29T11:42:09.175Z,65387.91
2022-08-29T11:45:39.115Z,65387.91
2022-08-29T11:49:25.095Z,65387.91
2022-08-29T11:52:56.184Z,65387.91
2022-08-29T11:56:28.537Z,65387.91
2022-08-29T11:59:59.433Z,65387.91
2022-08-29T12:03:54.816Z,65387.91
2022-08-29T12:07:35.551Z,65387.91
2022-08-29T12:11:04.855Z,65387.91
2022-08-29T12:14:50.254Z,65387.91
2022-08-29T12:18:47.924Z,65387.91
2022-08-29T12:21:48.591Z,100728.09
2022-08-29T12:24:38.723Z,100765.97
2022-08-29T12:27:23.291Z,100746.94
2022-08-29T12:29:53.465Z,100633.91
2022-08-29T12:32:40.729Z,100379.13
2022-08-29T12:35:25.783Z,100234.84
2022-08-29T12:38:05.606Z,100225.06
2022-08-29T12:41:02.191Z,100165.75
2022-08-29T12:43:37.162Z,100194.09
2022-08-29T12:46:12.143Z,100256.34
2022-08-29T12:48:46.326Z,100286.63
2022-08-29T12:52:32.743Z,65387.91
2022-08-29T12:56:00.952Z,65387.91
2022-08-29T12:59:36.546Z,65387.91
2022-08-29T13:03:04.441Z,65387.91
2022-08-29T13:06:36.797Z,65387.91
2022-08-29T13:10:03.621Z,65387.91
2022-08-29T13:13:31.194Z,65387.91
2022-08-29T13:17:00.293Z,65387.91
2022-08-29T13:20:48.661Z,65387.91
2022-08-29T13:24:20.998Z,65387.91
2022-08-29T13:28:01.099Z,65387.91
2022-08-29T13:30:33.812Z,65387.91
2022-08-29T13:33:09.024Z,65387.91
2022-08-29T13:36:38.915Z,65387.91
2022-08-29T13:40:31.559Z,65387.91
2022-08-29T13:44:00.824Z,65387.91
2022-08-29T13:47:28.591Z,65387.91
2022-08-29T13:50:58.157Z,65387.91
2022-08-29T13:54:28.458Z,65387.91
2022-08-29T13:57:56.179Z,65387.91
2022-08-29T14:02:07.446Z,65387.91
2022-08-29T14:05:18.724Z,65387.91
2022-08-29T14:08:45.496Z,65387.91
2022-08-29T14:12:14.212Z,65387.91
2022-08-29T14:15:45.105Z,65387.91
2022-08-29T14:19:11.265Z,65387.91
2022-08-29T14:22:38.527Z,65387.91
2022-08-29T14:26:05.306Z,65387.91
2022-08-29T14:28:35.705Z,100747.22
2022-08-29T14:31:05.667Z,100733.13
2022-08-29T14:33:33.978Z,100732.19
2022-08-29T14:36:02.027Z,100711.16
2022-08-29T14:38:38.548Z,100710.56
2022-08-29T14:41:06.011Z,100716.13
2022-08-29T14:43:39.654Z,100711.19
2022-08-29T14:46:07.704Z,100709.03
2022-08-29T14:49:33.932Z,65387.91
2022-08-29T14:52:59.668Z,65387.91
2022-08-29T14:56:47.715Z,65387.91
2022-08-29T14:59:48.034Z,100709.03
2022-08-29T15:03:14.004Z,65387.91
2022-08-29T15:06:41.139Z,65387.91
2022-08-29T15:10:07.857Z,65387.91
2022-08-29T15:13:30.448Z,65387.91
2022-08-29T15:16:56.578Z,65387.91
2022-08-29T15:22:19.847Z,100584.94
2022-08-29T15:24:48.059Z,100693.31
2022-08-29T15:27:15.904Z,100706.97
2022-08-29T15:29:44.667Z,100715.47
2022-08-29T15:32:13.058Z,100727.03
2022-08-29T15:34:42.349Z,100724.66
2022-08-29T15:37:11.557Z,100723.66
2022-08-29T15:39:40.770Z,100719.06
2022-08-29T15:42:11.218Z,100663.31
2022-08-29T15:44:39.983Z,100570.16
2022-08-29T15:47:10.513Z,100511.59
2022-08-29T15:50:37.154Z,65387.91
2022-08-29T15:54:02.799Z,65387.91
2022-08-29T15:56:34.944Z,100558.28
2022-08-29T15:59:05.581Z,100551.09
2022-08-29T16:01:36.528Z,100540.88
2022-08-29T16:04:06.628Z,100540.72
2022-08-29T16:06:34.738Z,100540.91
2022-08-29T16:09:23.259Z,100540.91
2022-08-29T16:11:52.770Z,100517.69
2022-08-29T16:14:58.203Z,100488.22
2022-08-29T16:18:06.924Z,65387.91
2022-08-29T16:21:35.440Z,65387.91
2022-08-29T16:24:03.559Z,100397.38
2022-08-29T16:26:32.245Z,100382.66
2022-08-29T16:28:59.976Z,100389.28
2022-08-29T16:31:28.900Z,100289.13
2022-08-29T16:33:56.413Z,100216.25
2022-08-29T16:36:26.512Z,100192.72
2022-08-29T16:39:52.426Z,65387.91
2022-08-29T16:43:21.077Z,65387.91
2022-08-29T16:45:48.623Z,100114.63
2022-08-29T16:48:17.739Z,100099.22
2022-08-29T16:50:46.039Z,100079.56
2022-08-29T16:53:16.149Z,100071.88
2022-08-29T16:55:43.789Z,100058.91
2022-08-29T16:58:28.549Z,100031.59
2022-08-29T17:00:56.149Z,100066.13
2022-08-29T17:03:23.540Z,100220.06
2022-08-29T17:05:51.056Z,100447.41
2022-08-29T17:08:19.835Z,100562.13
2022-08-29T17:10:46.398Z,100600.75
2022-08-29T17:13:13.144Z,100641.22
2022-08-29T17:15:39.517Z,100668.53
2022-08-29T17:18:07.853Z,100661.84
2022-08-29T17:20:37.661Z,100671.06
2022-08-29T17:23:10.196Z,100668.16
2022-08-29T17:25:39.335Z,100664.75
2022-08-29T17:28:17.571Z,100654.28
2022-08-29T17:30:46.534Z,100633.78
2022-08-29T17:33:14.172Z,100594.00
2022-08-29T17:36:41.842Z,65387.91
2022-08-29T17:40:09.278Z,65387.91
2022-08-29T17:43:28.825Z,75823.06
2022-08-29T17:45:58.023Z,99974.66
2022-08-29T17:49:16.496Z,65387.91
2022-08-29T17:51:44.107Z,99724.97
2022-08-29T17:55:11.763Z,65387.91
2022-08-29T17:57:47.045Z,99724.97
2022-08-29T18:00:15.413Z,99951.19
2022-08-29T18:03:40.351Z,65387.91
2022-08-29T18:07:06.175Z,65387.91
2022-08-29T18:10:10.591Z,99951.19
2022-08-29T18:12:38.395Z,100786.03
2022-08-29T18:15:52.540Z,65387.91
2022-08-29T18:19:20.590Z,65387.91
2022-08-29T18:22:02.035Z,100786.03
2022-08-29T18:25:24.936Z,65387.91
2022-08-29T18:28:50.254Z,65387.91
2022-08-29T18:32:18.329Z,65387.91
2022-08-29T18:35:44.278Z,65387.91
2022-08-29T18:39:10.596Z,65387.91
2022-08-29T18:42:40.564Z,65387.91
2022-08-29T18:46:09.229Z,65387.91
2022-08-29T18:49:44.617Z,65387.91
2022-08-29T18:53:11.664Z,65387.91
2022-08-29T18:56:35.874Z,65387.91
2022-08-29T18:59:23.460Z,100786.03
2022-08-29T19:02:48.896Z,65387.91
2022-08-29T19:06:14.951Z,65387.91
2022-08-29T19:09:39.065Z,65387.91
2022-08-29T19:13:07.722Z,65387.91
2022-08-29T19:16:33.180Z,65387.91
2022-08-29T19:20:15.875Z,65387.91
2022-08-29T19:22:44.603Z,100949.34
2022-08-29T19:26:11.672Z,65387.91
2022-08-29T19:32:07.159Z,65387.91
2022-08-29T19:35:33.306Z,65387.91
2022-08-29T19:39:00.820Z,65387.91
2022-08-29T19:42:26.721Z,65387.91
2022-08-29T19:45:52.670Z,65387.91
2022-08-29T19:49:19.727Z,65387.91
2022-08-29T19:52:46.196Z,65387.91
2022-08-29T19:56:14.451Z,65387.91
2022-08-29T19:59:40.091Z,65387.91
2022-08-29T20:03:08.832Z,65387.91
2022-08-29T20:06:35.140Z,65387.91
2022-08-29T20:10:02.033Z,65387.91
2022-08-29T20:13:35.291Z,65387.91
2022-08-29T20:16:04.086Z,100889.13
2022-08-29T20:19:31.448Z,65387.91
2022-08-29T20:22:57.467Z,65387.91
2022-08-29T20:26:24.528Z,65387.91
2022-08-29T20:29:52.000Z,65387.91
2022-08-29T20:33:18.124Z,65387.91
2022-08-29T20:37:01.697Z,65387.91
2022-08-29T20:40:27.920Z,65387.91
2022-08-29T20:43:56.472Z,65387.91
2022-08-29T20:47:23.705Z,65387.91
2022-08-29T20:50:58.515Z,65387.91
2022-08-29T20:54:25.231Z,65387.91
2022-08-29T20:57:51.660Z,65387.91
2022-08-29T21:01:20.943Z,65387.91
2022-08-29T21:05:04.661Z,65387.91
2022-08-29T21:08:31.809Z,65387.91
2022-08-29T21:11:57.994Z,65387.91
2022-08-29T21:15:25.747Z,65387.91
2022-08-29T21:18:52.996Z,65387.91
2022-08-29T21:22:22.992Z,65387.91
2022-08-29T21:25:53.075Z,65387.91
2022-08-29T21:29:21.087Z,65387.91
2022-08-29T21:32:49.332Z,65387.91
2022-08-29T21:36:17.199Z,65387.91
2022-08-29T21:39:45.279Z,65387.91
2022-08-29T21:43:11.257Z,65387.91
2022-08-29T21:46:42.852Z,65387.91
2022-08-29T21:50:11.453Z,65387.91
2022-08-29T21:53:37.755Z,65387.91
2022-08-29T21:57:07.646Z,65387.91
2022-08-29T22:00:35.360Z,65387.91
2022-08-29T22:04:02.959Z,65387.91
2022-08-29T22:07:31.164Z,65387.91
2022-08-29T22:10:58.376Z,65387.91
2022-08-29T22:14:46.578Z,65387.91
2022-08-29T22:18:14.692Z,65387.91
2022-08-29T22:21:43.452Z,65387.91
2022-08-29T22:25:11.164Z,65387.91
2022-08-29T22:28:37.099Z,65387.91
2022-08-29T22:32:03.312Z,65387.91
2022-08-29T22:35:29.270Z,65387.91
2022-08-29T22:38:57.545Z,65387.91
2022-08-29T22:42:24.272Z,65387.91
2022-08-29T22:45:51.411Z,65387.91
2022-08-29T22:49:19.639Z,65387.91
2022-08-29T22:52:45.866Z,65387.91
2022-08-29T22:56:15.848Z,65387.91
2022-08-29T22:59:42.440Z,65387.91
2022-08-29T23:03:09.256Z,65387.91
2022-08-29T23:06:35.765Z,65387.91
2022-08-29T23:10:01.740Z,65387.91
2022-08-29T23:13:29.050Z,65387.91
2022-08-29T23:16:57.039Z,65387.91
2022-08-29T23:20:23.104Z,65387.91
2022-08-29T23:23:49.205Z,65387.91
2022-08-29T23:27:11.675Z,65387.91
2022-08-29T23:30:41.442Z,65387.91
2022-08-29T23:34:04.951Z,65387.91
2022-08-29T23:37:30.867Z,65387.91
2022-08-29T23:40:57.955Z,65387.91
2022-08-29T23:44:24.019Z,65387.91
2022-08-29T23:47:54.032Z,65387.91
2022-08-29T23:51:19.237Z,65387.91
2022-08-29T23:54:45.163Z,65387.91
2022-08-29T23:58:11.064Z,65387.91
